.
WxDataArchive / Data Records for 2014-09-16
2014-09-15 September 2014 2014-09-17

Data Records for Tuesday, 16 September 2014

Time	Temp	Chill	HIndex	Humid	Dewpt	 Wind 	HiWind	WindDir	Rain 	Barom
-----	----	-----	------	-----	-----	------	------	-------	-----	-----
00:00	53.3	53.3	53.3	95	51.9	0	0	---	0.00	30.098 
00:05	53.3	53.3	53.3	95	51.9	0	0	---	0.00	30.098 
00:10	53.2	53.2	53.2	95	51.8	0	0	---	0.00	30.098 
00:15	53.1	53.1	53.1	96	52.0	0	0	---	0.00	30.093 
00:20	53.1	53.1	53.1	95	51.7	0	0	---	0.00	30.093 
00:25	52.9	52.9	52.9	95	51.5	0	0	---	0.00	30.093 
00:30	52.8	52.8	52.8	95	51.4	0	0	---	0.00	30.092 
00:35	52.5	52.5	52.5	95	51.1	0	0	---	0.00	30.092 
00:40	52.3	52.3	52.3	95	50.9	0	0	---	0.00	30.092 
00:45	52.2	52.2	52.2	96	51.1	0	0	---	0.00	30.096 
00:50	52.0	52.0	52.0	96	50.9	0	0	---	0.00	30.096 
00:55	51.7	51.7	51.7	95	50.3	0	0	---	0.00	30.096 
01:00	51.6	51.6	51.6	95	50.2	0	0	---	0.00	30.096 
01:05	51.3	51.3	51.3	95	49.9	0	0	---	0.00	30.096 
01:10	51.3	51.3	51.3	95	49.9	0	0	---	0.00	30.096 
01:15	51.4	51.4	51.4	96	50.3	0	0	---	0.00	30.097 
01:20	51.6	51.6	51.6	96	50.5	0	0	---	0.00	30.097 
01:25	51.7	51.7	51.7	96	50.6	0	0	---	0.00	30.097 
01:30	51.9	51.9	51.9	96	50.8	0	0	---	0.00	30.104 
01:35	52.0	52.0	52.0	96	50.9	0	0	---	0.00	30.104 
01:40	52.2	52.2	52.2	96	51.1	0	0	---	0.00	30.104 
01:45	52.3	52.3	52.3	96	51.2	0	0	---	0.00	30.106 
01:50	52.6	52.6	52.6	96	51.5	0	0	---	0.00	30.106 
01:55	52.9	52.9	52.9	96	51.8	0	0	---	0.00	30.106 
02:00	53.1	53.1	53.1	96	52.0	0	0	---	0.00	30.105 
02:05	53.1	53.1	53.1	96	52.0	0	0	---	0.00	30.105 
02:10	53.1	53.1	53.1	96	52.0	0	1	90	0.00	30.105 
02:15	53.1	53.1	53.1	96	52.0	0	0	---	0.00	30.105 
02:20	52.9	52.9	52.9	96	51.8	0	0	---	0.00	30.105 
02:25	52.8	52.8	52.8	96	51.7	0	0	---	0.00	30.105 
02:30	52.6	52.6	52.6	96	51.5	0	0	---	0.00	30.104 
02:35	52.5	52.5	52.5	96	51.4	0	0	---	0.00	30.104 
02:40	52.2	52.2	52.2	96	51.1	0	0	---	0.00	30.104 
02:45	51.7	51.7	51.7	96	50.6	0	0	---	0.00	30.107 
02:50	51.6	51.6	51.6	96	50.5	0	0	---	0.00	30.107 
02:55	51.3	51.3	51.3	96	50.2	0	0	---	0.00	30.107 
03:00	51.3	51.3	51.3	96	50.2	0	0	---	0.00	30.108 
03:05	51.6	51.6	51.6	96	50.5	0	0	---	0.00	30.108 
03:10	52.0	52.0	52.0	96	50.9	0	1	90	0.00	30.108 
03:15	52.3	52.3	52.3	96	51.2	0	2	90	0.00	30.109 
03:20	52.5	52.5	52.5	96	51.4	0	2	90	0.00	30.109 
03:25	52.5	52.5	52.5	96	51.4	0	2	90	0.00	30.109 
03:30	52.5	52.5	52.5	96	51.4	0	3	90	0.01	30.108 
03:35	52.5	52.5	52.5	96	51.4	0	1	90	0.00	30.108 
03:40	52.6	52.6	52.6	96	51.5	0	1	90	0.00	30.108 
03:45	52.5	52.5	52.5	96	51.4	0	3	90	0.00	30.109 
03:50	52.5	52.5	52.5	96	51.4	0	3	90	0.00	30.109 
03:55	52.3	52.3	52.3	96	51.2	0	2	90	0.00	30.109 
04:00	52.3	52.3	52.3	96	51.2	0	3	90	0.00	30.111 
04:05	52.5	52.5	52.5	96	51.4	0	2	90	0.00	30.111 
04:10	52.5	52.5	52.5	96	51.4	0	2	90	0.00	30.111 
04:15	52.5	52.5	52.5	96	51.4	0	2	90	0.00	30.110 
04:20	52.5	52.5	52.5	96	51.4	0	3	90	0.00	30.110 
04:25	52.5	52.5	52.5	96	51.4	0	1	90	0.00	30.110 
04:30	52.5	52.5	52.5	96	51.4	0	1	90	0.00	30.107 
04:35	52.5	52.5	52.5	96	51.4	0	1	90	0.00	30.107 
04:40	52.6	52.6	52.6	96	51.5	0	0	---	0.00	30.107 
04:45	52.6	52.6	52.6	96	51.5	0	2	90	0.00	30.107 
04:50	52.8	52.8	52.8	96	51.7	0	1	90	0.00	30.107 
04:55	52.6	52.6	52.6	96	51.5	0	2	90	0.00	30.107 
05:00	52.6	52.6	52.6	96	51.5	0	1	90	0.00	30.108 
05:05	52.6	52.6	52.6	96	51.5	0	1	90	0.00	30.108 
05:10	52.6	52.6	52.6	96	51.5	0	1	90	0.00	30.108 
05:15	52.6	52.6	52.6	96	51.5	0	1	90	0.00	30.115 
05:20	52.6	52.6	52.6	96	51.5	0	0	---	0.00	30.115 
05:25	52.6	52.6	52.6	96	51.5	0	0	---	0.00	30.115 
05:30	52.6	52.6	52.6	96	51.5	0	2	90	0.00	30.109 
05:35	52.5	52.5	52.5	96	51.4	0	1	90	0.00	30.109 
05:40	52.5	52.5	52.5	96	51.4	0	1	90	0.00	30.109 
05:45	52.3	52.3	52.3	96	51.2	0	1	90	0.00	30.120 
05:50	52.3	52.3	52.3	96	51.2	0	1	90	0.00	30.120 
05:55	52.3	52.3	52.3	96	51.2	0	1	90	0.00	30.120 
06:00	52.5	52.5	52.5	96	51.4	0	0	---	0.00	30.127 
06:05	52.5	52.5	52.5	96	51.4	0	0	---	0.00	30.127 
06:10	52.5	52.5	52.5	96	51.4	0	0	---	0.00	30.127 
06:15	52.5	52.5	52.5	96	51.4	0	0	---	0.00	30.126 
06:20	52.5	52.5	52.5	96	51.4	0	0	---	0.00	30.126 
06:25	52.5	52.5	52.5	96	51.4	0	0	---	0.00	30.126 
06:30	52.5	52.5	52.5	96	51.4	0	0	---	0.00	30.126 
06:35	52.5	52.5	52.5	96	51.4	0	0	---	0.00	30.126 
06:40	52.3	52.3	52.3	96	51.2	0	0	---	0.00	30.126 
06:45	52.0	52.0	52.0	96	50.9	0	0	---	0.00	30.133 
06:50	51.7	51.7	51.7	95	50.3	0	0	---	0.00	30.133 
06:55	51.4	51.4	51.4	95	50.0	0	0	---	0.00	30.133 
07:00	51.1	51.1	51.1	95	49.7	0	0	---	0.00	30.141 
07:05	51.0	51.0	51.0	95	49.6	0	0	---	0.00	30.141 
07:10	50.7	50.7	50.7	95	49.3	0	0	---	0.00	30.141 
07:15	50.4	50.4	50.4	95	49.0	0	0	---	0.00	30.148 
07:20	49.9	49.9	49.9	95	48.5	0	0	---	0.00	30.148 
07:25	49.8	49.8	49.8	95	48.4	0	0	---	0.00	30.148 
07:30	49.5	49.5	49.5	95	48.1	0	0	---	0.00	30.158 
07:35	49.4	49.4	49.4	95	48.0	0	0	---	0.00	30.158 
07:40	49.1	49.1	49.1	95	47.7	0	0	---	0.00	30.158 
07:45	48.9	48.9	48.9	95	47.5	0	0	---	0.00	30.158 
07:50	48.9	48.9	48.9	95	47.5	0	0	---	0.00	30.158 
07:55	48.9	48.9	48.9	95	47.5	0	0	---	0.00	30.158 
08:00	49.1	49.1	49.1	96	48.0	0	0	---	0.00	30.166 
08:05	49.2	49.2	49.2	96	48.1	0	0	---	0.00	30.166 
08:10	49.5	49.5	49.5	96	48.4	0	0	---	0.00	30.166 
08:15	49.9	49.9	49.9	96	48.8	0	0	---	0.00	30.167 
08:20	50.4	50.4	50.4	96	49.3	0	0	---	0.00	30.167 
08:25	50.8	50.8	50.8	96	49.7	0	0	---	0.00	30.167 
08:30	51.1	51.1	51.1	96	50.0	0	0	---	0.00	30.167 
08:35	51.6	51.6	51.6	96	50.5	0	0	---	0.00	30.167 
08:40	51.7	51.7	51.7	96	50.6	0	0	---	0.00	30.167 
08:45	52.0	52.0	52.0	96	50.9	0	0	---	0.00	30.161 
08:50	52.0	52.0	52.0	96	50.9	0	0	---	0.00	30.161 
08:55	52.2	52.2	52.2	96	51.1	0	0	---	0.00	30.161 
09:00	52.2	52.2	52.2	96	51.1	0	0	---	0.00	30.160 
09:05	52.2	52.2	52.2	96	51.1	0	0	---	0.00	30.160 
09:10	52.0	52.0	52.0	96	50.9	0	0	---	0.00	30.160 
09:15	52.2	52.2	52.2	96	51.1	0	2	90	0.00	30.163 
09:20	52.0	52.0	52.0	95	50.6	0	3	90	0.00	30.163 
09:25	52.0	52.0	52.0	96	50.9	0	3	90	0.00	30.163 
09:30	52.3	52.3	52.3	96	51.2	1	3	90	0.00	30.166 
09:35	52.6	52.6	52.6	96	51.5	1	4	315	0.00	30.166 
09:40	52.8	52.8	52.8	95	51.4	1	4	315	0.00	30.166 
09:45	52.8	52.8	52.8	95	51.4	1	3	315	0.00	30.173 
09:50	52.9	52.9	52.9	94	51.2	1	3	315	0.00	30.173 
09:55	52.9	52.9	52.9	94	51.2	1	3	315	0.00	30.173 
10:00	53.1	53.1	53.1	93	51.1	1	3	315	0.00	30.176 
10:05	53.5	53.5	53.5	93	51.5	1	2	315	0.00	30.176 
10:10	53.8	53.8	53.8	91	51.2	1	4	315	0.00	30.176 
10:15	54.1	54.1	54.1	89	50.9	1	7	315	0.00	30.176 
10:20	54.5	54.5	54.5	89	51.3	1	3	68	0.00	30.176 
10:25	54.8	54.8	54.8	88	51.3	1	2	68	0.00	30.176 
10:30	54.8	54.8	54.8	87	51.0	1	2	0	0.00	30.179 
10:35	55.1	55.1	55.1	86	51.0	0	2	0	0.00	30.179 
10:40	55.1	55.1	55.1	84	50.4	0	3	0	0.00	30.179 
10:45	55.6	55.6	55.6	85	51.2	0	3	0	0.00	30.178 
10:50	55.9	55.9	55.9	81	50.2	1	4	112	0.00	30.178 
10:55	56.6	56.6	56.6	82	51.2	0	1	112	0.00	30.178 
11:00	57.5	57.5	57.5	81	51.7	1	2	112	0.00	30.169 
11:05	57.6	57.6	57.6	78	50.8	1	3	112	0.00	30.169 
11:10	57.3	57.3	57.3	77	50.1	1	4	22	0.00	30.169 
11:15	56.7	56.7	56.7	78	49.9	1	3	22	0.00	30.170 
11:20	56.5	56.5	56.5	78	49.7	0	2	22	0.00	30.170 
11:25	56.3	56.3	56.3	78	49.5	0	1	22	0.00	30.170 
11:30	56.3	56.3	56.3	78	49.5	0	1	22	0.00	30.170 
11:35	56.3	56.3	56.3	77	49.2	0	3	22	0.00	30.170 
11:40	57.2	57.2	57.2	79	50.7	0	1	22	0.00	30.170 
11:45	58.1	58.1	58.1	75	50.2	0	1	22	0.00	30.159 
11:50	59.2	59.2	59.2	75	51.3	1	4	22	0.00	30.159 
11:55	59.5	59.5	59.5	67	48.5	1	3	90	0.00	30.159 
12:00	59.8	59.8	59.8	66	48.4	1	3	90	0.00	30.154 
12:05	60.2	60.2	60.2	67	49.2	1	3	90	0.00	30.154 
12:10	60.9	60.9	60.9	65	49.1	1	2	90	0.00	30.154 
12:15	60.9	60.9	60.9	60	46.9	1	4	90	0.00	30.152 
12:20	60.7	60.7	60.7	63	48.0	0	2	90	0.00	30.152 
12:25	61.3	61.3	61.3	65	49.4	0	1	90	0.00	30.152 
12:30	62.4	62.4	62.4	63	49.6	1	4	90	0.00	30.146 
12:35	62.6	62.6	62.6	61	49.0	1	3	90	0.00	30.146 
12:40	62.0	62.0	62.0	62	48.8	1	2	90	0.00	30.146 
12:45	60.7	60.7	60.7	63	48.0	0	2	90	0.00	30.146 
12:50	59.8	59.8	59.8	64	47.6	0	1	90	0.00	30.146 
12:55	59.8	59.8	59.8	65	48.0	0	2	90	0.00	30.146 
13:00	60.5	60.5	60.5	64	48.3	0	2	90	0.00	30.144 
13:05	61.3	61.3	61.3	59	46.8	0	2	90	0.00	30.144 
13:10	62.3	62.3	62.3	58	47.3	1	3	90	0.00	30.144 
13:15	62.9	62.9	62.9	58	47.9	1	2	90	0.00	30.135 
13:20	63.7	63.7	63.7	58	48.6	0	1	90	0.00	30.135 
13:25	63.7	63.7	63.7	57	48.2	1	3	90	0.00	30.135 
13:30	63.1	63.1	63.1	58	48.1	0	1	90	0.00	30.133 
13:35	62.0	62.0	62.0	56	46.1	0	1	90	0.00	30.133 
13:40	61.8	61.8	61.8	56	45.9	1	3	90	0.00	30.133 
13:45	61.6	61.6	61.6	58	46.7	2	4	90	0.00	30.132 
13:50	62.1	62.1	62.1	55	45.7	1	3	90	0.00	30.132 
13:55	62.4	62.4	62.4	57	47.0	1	3	90	0.00	30.132 
14:00	62.4	62.4	62.4	58	47.4	0	2	90	0.00	30.126 
14:05	62.6	62.6	62.6	56	46.7	1	3	90	0.00	30.126 
14:10	63.1	63.1	63.1	55	46.7	1	3	90	0.00	30.126 
14:15	63.7	63.7	63.7	57	48.2	0	1	90	0.00	30.120 
14:20	63.7	63.7	63.7	53	46.2	0	2	90	0.00	30.120 
14:25	63.7	63.7	63.7	54	46.7	0	1	90	0.00	30.120 
14:30	64.3	64.3	64.3	59	49.7	0	1	90	0.00	30.118 
14:35	64.7	64.7	64.7	52	46.7	1	3	90	0.00	30.118 
14:40	64.8	64.8	64.8	50	45.7	1	4	112	0.00	30.118 
14:45	64.8	64.8	64.8	50	45.7	0	4	112	0.00	30.115 
14:50	64.8	64.8	64.8	50	45.7	1	2	112	0.00	30.115 
14:55	64.7	64.7	64.7	48	44.6	1	3	112	0.00	30.115 
15:00	64.3	64.3	64.3	48	44.2	0	2	112	0.00	30.114 
15:05	64.5	64.5	64.5	50	45.4	0	2	112	0.00	30.114 
15:10	64.0	64.0	64.0	50	45.0	1	4	112	0.00	30.114 
15:15	63.7	63.7	63.7	53	46.2	1	3	112	0.00	30.105 
15:20	64.0	64.0	64.0	54	47.0	0	2	112	0.00	30.105 
15:25	64.5	64.5	64.5	50	45.4	1	4	112	0.00	30.105 
15:30	64.8	64.8	64.8	49	45.2	1	3	112	0.00	30.104 
15:35	64.7	64.7	64.7	47	44.0	1	3	112	0.00	30.104 
15:40	65.0	65.0	65.0	50	45.9	1	3	112	0.00	30.104 
15:45	65.0	65.0	65.0	48	44.8	1	3	112	0.00	30.101 
15:50	64.5	64.5	64.5	48	44.4	0	2	112	0.00	30.101 
15:55	63.7	63.7	63.7	50	44.7	0	2	112	0.00	30.101 
16:00	63.1	63.1	63.1	51	44.7	0	1	112	0.00	30.096 
16:05	63.1	63.1	63.1	49	43.6	0	3	112	0.00	30.096 
16:10	63.4	63.4	63.4	52	45.5	0	1	112	0.00	30.096 
16:15	63.9	63.9	63.9	50	44.9	0	2	112	0.00	30.089 
16:20	64.2	64.2	64.2	50	45.2	0	2	112	0.00	30.089 
16:25	64.2	64.2	64.2	50	45.2	0	2	112	0.00	30.089 
16:30	64.2	64.2	64.2	51	45.7	0	1	112	0.00	30.088 
16:35	63.9	63.9	63.9	47	43.3	1	3	112	0.00	30.088 
16:40	63.7	63.7	63.7	50	44.7	0	1	112	0.00	30.088 
16:45	63.9	63.9	63.9	50	44.9	0	2	112	0.00	30.086 
16:50	63.9	63.9	63.9	50	44.9	0	2	112	0.00	30.086 
16:55	63.5	63.5	63.5	51	45.0	0	2	112	0.00	30.086 
17:00	63.4	63.4	63.4	52	45.5	0	1	112	0.00	30.082 
17:05	63.7	63.7	63.7	49	44.2	0	2	112	0.00	30.082 
17:10	64.0	64.0	64.0	48	43.9	1	4	112	0.00	30.082 
17:15	64.3	64.3	64.3	46	43.1	1	2	112	0.00	30.081 
17:20	64.5	64.5	64.5	46	43.3	0	1	112	0.00	30.081 
17:25	64.7	64.7	64.7	48	44.6	0	2	112	0.00	30.081 
17:30	64.7	64.7	64.7	47	44.0	1	3	112	0.00	30.077 
17:35	64.7	64.7	64.7	49	45.1	1	4	112	0.00	30.077 
17:40	64.7	64.7	64.7	48	44.6	0	1	112	0.00	30.077 
17:45	64.7	64.7	64.7	48	44.6	0	1	112	0.00	30.075 
17:50	64.5	64.5	64.5	46	43.3	1	3	112	0.00	30.075 
17:55	64.5	64.5	64.5	46	43.3	1	3	112	0.00	30.075 
18:00	64.7	64.7	64.7	48	44.6	0	2	112	0.00	30.071 
18:05	64.7	64.7	64.7	46	43.4	0	2	112	0.00	30.071 
18:10	64.7	64.7	64.7	48	44.6	0	2	112	0.00	30.071 
18:15	64.7	64.7	64.7	47	44.0	0	2	112	0.00	30.073 
18:20	64.5	64.5	64.5	48	44.4	0	1	112	0.00	30.073 
18:25	64.3	64.3	64.3	46	43.1	0	1	112	0.00	30.073 
18:30	64.3	64.3	64.3	48	44.2	0	2	112	0.00	30.078 
18:35	64.2	64.2	64.2	46	43.0	0	2	112	0.00	30.078 
18:40	64.0	64.0	64.0	47	43.4	0	1	112	0.00	30.078 
18:45	64.0	64.0	64.0	48	43.9	0	2	112	0.00	30.075 
18:50	63.9	63.9	63.9	48	43.8	0	1	112	0.00	30.075 
18:55	63.7	63.7	63.7	48	43.6	0	1	112	0.00	30.075 
19:00	63.5	63.5	63.5	49	44.0	0	1	112	0.00	30.075 
19:05	63.4	63.4	63.4	49	43.9	0	1	112	0.00	30.075 
19:10	63.2	63.2	63.2	49	43.7	0	1	112	0.00	30.075 
19:15	63.1	63.1	63.1	50	44.2	0	1	112	0.00	30.076 
19:20	62.7	62.7	62.7	52	44.8	0	0	---	0.00	30.076 
19:25	62.4	62.4	62.4	54	45.5	0	0	---	0.00	30.076 
19:30	62.0	62.0	62.0	55	45.6	0	0	---	0.00	30.075 
19:35	61.6	61.6	61.6	57	46.2	0	0	---	0.00	30.075 
19:40	61.2	61.2	61.2	57	45.8	0	0	---	0.00	30.075 
19:45	60.7	60.7	60.7	59	46.3	0	0	---	0.00	30.076 
19:50	60.1	60.1	60.1	61	46.6	0	0	---	0.00	30.076 
19:55	59.5	59.5	59.5	62	46.5	0	0	---	0.00	30.076 
20:00	58.7	58.7	58.7	65	47.0	0	0	---	0.00	30.077 
20:05	58.1	58.1	58.1	66	46.8	0	0	---	0.00	30.077 
20:10	57.3	57.3	57.3	68	46.8	0	0	---	0.00	30.077 
20:15	56.9	56.9	56.9	70	47.2	0	0	---	0.00	30.077 
20:20	56.5	56.5	56.5	72	47.6	0	0	---	0.00	30.077 
20:25	56.0	56.0	56.0	74	47.8	0	0	---	0.00	30.077 
20:30	55.6	55.6	55.6	75	47.8	0	0	---	0.00	30.078 
20:35	55.3	55.3	55.3	76	47.9	0	0	---	0.00	30.078 
20:40	54.8	54.8	54.8	77	47.7	0	0	---	0.00	30.078 
20:45	54.5	54.5	54.5	78	47.8	0	0	---	0.00	30.082 
20:50	54.2	54.2	54.2	79	47.8	0	0	---	0.00	30.082 
20:55	54.1	54.1	54.1	80	48.1	0	0	---	0.00	30.082 
21:00	53.8	53.8	53.8	81	48.1	0	0	---	0.00	30.079 
21:05	53.5	53.5	53.5	81	47.8	0	0	---	0.00	30.079 
21:10	53.2	53.2	53.2	82	47.8	0	0	---	0.00	30.079 
21:15	53.1	53.1	53.1	83	48.1	0	0	---	0.00	30.080 
21:20	52.8	52.8	52.8	83	47.8	0	0	---	0.00	30.080 
21:25	52.6	52.6	52.6	84	47.9	0	0	---	0.00	30.080 
21:30	52.3	52.3	52.3	84	47.6	0	0	---	0.00	30.085 
21:35	52.2	52.2	52.2	85	47.8	0	0	---	0.00	30.085 
21:40	52.0	52.0	52.0	85	47.6	0	0	---	0.00	30.085 
21:45	51.7	51.7	51.7	86	47.6	0	0	---	0.00	30.084 
21:50	51.6	51.6	51.6	86	47.5	0	0	---	0.00	30.084 
21:55	51.4	51.4	51.4	86	47.4	0	0	---	0.00	30.084 
22:00	51.1	51.1	51.1	87	47.4	0	0	---	0.00	30.083 
22:05	51.0	51.0	51.0	87	47.3	0	0	---	0.00	30.083 
22:10	50.8	50.8	50.8	88	47.4	0	0	---	0.00	30.083 
22:15	50.7	50.7	50.7	88	47.3	0	0	---	0.00	30.079 
22:20	50.5	50.5	50.5	88	47.1	0	0	---	0.00	30.079 
22:25	50.4	50.4	50.4	88	47.0	0	0	---	0.00	30.079 
22:30	50.4	50.4	50.4	89	47.3	0	0	---	0.00	30.081 
22:35	50.2	50.2	50.2	89	47.1	0	1	112	0.00	30.081 
22:40	50.2	50.2	50.2	90	47.4	0	0	---	0.00	30.081 
22:45	50.5	50.5	50.5	90	47.7	0	1	112	0.00	30.083 
22:50	51.1	51.1	51.1	89	48.0	0	1	112	0.00	30.083 
22:55	51.9	51.9	51.9	88	48.5	0	1	112	0.00	30.083 
23:00	52.2	52.2	52.2	87	48.4	0	1	112	0.00	30.081 
23:05	52.3	52.3	52.3	86	48.2	0	1	112	0.00	30.081 
23:10	52.3	52.3	52.3	85	47.9	0	0	---	0.00	30.081 
23:15	52.3	52.3	52.3	85	47.9	0	0	---	0.00	30.086 
23:20	52.3	52.3	52.3	84	47.6	0	0	---	0.00	30.086 
23:25	52.2	52.2	52.2	84	47.5	0	0	---	0.00	30.086 
23:30	52.0	52.0	52.0	84	47.3	0	0	---	0.00	30.086 
23:35	51.9	51.9	51.9	84	47.2	0	0	---	0.00	30.086 
23:40	51.6	51.6	51.6	84	46.9	0	0	---	0.00	30.086 
23:45	51.4	51.4	51.4	85	47.0	0	0	---	0.00	30.088 
23:50	51.1	51.1	51.1	85	46.7	0	0	---	0.00	30.088 
23:55	50.8	50.8	50.8	85	46.5	0	0	---	0.00	30.088 

CoCoRaHS
IN-AL-39
A2 Web Hosting
Creative Commons License
GoDaddy
search engine by freefind advanced

loaded 2018-11-14 00:25:44 • last modified 2010-11-18 10:43:29
Privacy PolicyDisclaimer
• wx.awcolley.com is powered by PmWiki v.2002016 •
• all content (unless otherwise noted) © 2018 A W Colley